TimeEDT,TemperatureF,Dew PointF,Humidity,Sea Level PressureIn,VisibilityMPH,Wind Direction,Wind SpeedMPH,Gust SpeedMPH,PrecipitationIn,Events,Conditions,WindDirDegrees,DateUTC
12:55 AM,60.3,57.2,90,30.08,10.0,Calm,Calm,-,N/A,,Clear,0,2012-11-01 04:55:00
1:55 AM,59.5,57.6,93,30.08,10.0,Calm,Calm,-,N/A,,Clear,0,2012-11-01 05:55:00
2:55 AM,59.4,57.9,95,30.08,10.0,Calm,Calm,-,N/A,,Clear,0,2012-11-01 06:55:00
3:15 AM,59.0,57.2,94,30.06,1.2,Calm,Calm,-,N/A,,Clear,0,2012-11-01 07:15:00
3:20 AM,59.0,57.2,94,30.05,7.0,South,1.2,-,N/A,,Clear,170,2012-11-01 07:20:00
3:55 AM,58.8,57.7,96,30.06,10.0,Calm,Calm,-,N/A,,Clear,0,2012-11-01 07:55:00
4:55 AM,58.1,57.0,96,30.07,10.0,Calm,Calm,-,N/A,,Clear,0,2012-11-01 08:55:00
5:55 AM,58.1,57.0,96,30.06,10.0,Calm,Calm,-,N/A,,Clear,0,2012-11-01 09:55:00
6:46 AM,57.2,57.2,100,30.07,0.8,Calm,Calm,-,N/A,,Clear,0,2012-11-01 10:46:00
6:48 AM,57.2,57.2,100,30.07,0.5,Calm,Calm,-,N/A,Fog,Fog,0,2012-11-01 10:48:00
6:55 AM,57.6,56.3,96,30.07,10.0,Calm,Calm,-,N/A,,Clear,0,2012-11-01 10:55:00
7:02 AM,57.2,55.4,94,30.08,1.5,Calm,Calm,-,N/A,,Clear,0,2012-11-01 11:02:00
7:04 AM,57.2,57.2,100,30.08,2.0,Calm,Calm,-,N/A,,Clear,0,2012-11-01 11:04:00
7:07 AM,57.2,55.4,94,30.08,3.0,Calm,Calm,-,N/A,,Clear,0,2012-11-01 11:07:00
7:55 AM,57.2,56.1,96,30.09,10.0,Calm,Calm,-,N/A,Fog,Shallow Fog,0,2012-11-01 11:55:00
8:01 AM,57.2,57.2,100,30.09,4.0,Calm,Calm,-,N/A,,Clear,0,2012-11-01 12:01:00
8:55 AM,62.2,61.0,96,30.10,10.0,Calm,Calm,-,N/A,,Clear,0,2012-11-01 12:55:00
9:30 AM,66.2,62.6,88,30.09,10.0,Calm,Calm,-,N/A,,Light Drizzle,0,2012-11-01 13:30:00
9:33 AM,66.2,60.8,83,30.09,10.0,Calm,Calm,-,N/A,,Clear,0,2012-11-01 13:33:00
9:55 AM,68.7,57.9,68,30.10,10.0,Calm,Calm,-,0.00,,Clear,0,2012-11-01 13:55:00
10:55 AM,72.7,59.4,63,30.11,10.0,WSW,4.6,-,N/A,,Clear,250,2012-11-01 14:55:00
11:55 AM,75.6,60.3,59,30.10,10.0,West,8.1,-,N/A,,Clear,270,2012-11-01 15:55:00
12:55 PM,77.7,59.5,53,30.07,10.0,WNW,6.9,-,N/A,,Clear,290,2012-11-01 16:55:00
1:55 PM,79.2,58.5,49,30.04,10.0,WNW,8.1,-,N/A,,Clear,290,2012-11-01 17:55:00
2:04 PM,78.8,55.4,44,30.04,10.0,WNW,4.6,-,N/A,,Clear,290,2012-11-01 18:04:00
2:05 PM,78.8,55.4,44,30.03,10.0,WNW,6.9,-,N/A,,Light Drizzle,290,2012-11-01 18:05:00
2:08 PM,78.8,55.4,44,30.03,10.0,WNW,11.5,-,N/A,,Clear,290,2012-11-01 18:08:00
2:27 PM,78.8,57.2,47,30.02,10.0,West,8.1,-,N/A,,Light Drizzle,260,2012-11-01 18:27:00
2:29 PM,78.8,57.2,47,30.02,10.0,West,8.1,-,N/A,,Clear,280,2012-11-01 18:29:00
2:55 PM,79.7,58.8,49,30.02,10.0,West,13.8,-,0.00,,Clear,260,2012-11-01 18:55:00
3:55 PM,79.5,56.5,45,30.01,10.0,WNW,8.1,-,N/A,,Clear,300,2012-11-01 19:55:00
4:55 PM,79.0,56.7,46,30.01,10.0,West,8.1,-,N/A,,Clear,270,2012-11-01 20:55:00
5:55 PM,77.2,59.2,54,30.01,10.0,West,9.2,-,N/A,,Clear,280,2012-11-01 21:55:00
6:55 PM,71.6,59.7,66,30.02,10.0,WSW,8.1,-,N/A,,Clear,250,2012-11-01 22:55:00
7:55 PM,68.2,61.7,80,30.03,10.0,SSW,4.6,-,N/A,,Clear,200,2012-11-01 23:55:00
8:55 PM,66.2,61.2,84,30.05,10.0,SW,4.6,-,N/A,,Clear,220,2012-11-02 00:55:00
9:55 PM,66.2,62.2,87,30.06,10.0,SSW,3.5,-,N/A,,Clear,210,2012-11-02 01:55:00
10:55 PM,64.9,62.4,92,30.07,10.0,SW,4.6,-,N/A,,Clear,220,2012-11-02 02:55:00
11:55 PM,64.8,62.8,93,30.08,10.0,WSW,3.5,-,N/A,,Clear,240,2012-11-02 03:55:00